If you wish to contribute or participate in the discussions about articles you are invited to join SKYbrary as a registered user

 Actions

Yantai Laishan International

From SKYbrary Wiki

ZSYT
Airport
ICAO: ZSYT
Summary
Name Yantai Laishan International
Region Asia and Pacific
Territory China CN.gif
Location Yantai, Shandong
Serving
Coordinates 37° 24' 6.00" N, 121° 22' 18.00" E
Runways
Designator Length Width Surface ROPS
4/22 2600 m8,530.184 ft <br /> 45 m147.638 ft <br /> CON yes/yes


METAR
Observation ZSYT 041000Z 09005MPS 9999 FEW040 28/22 Q1004 NOSIG
Station Laishan
Date/Time 04 August 2021 10:00:00
Wind direction 90°
Wind speed kts
Lowest cloud amount few clouds
Temperature 28°C
Dew point 22°C
Humidity 69%
QNH 1004 hPa
Weather condition n/a

Yantai Laishan International Airport (IATA: YNT) is a dual-use military and civilian airport serving the city of Yantai in Shandong Province, China.